Terminal Aerodrome Forecast
Issued by NWS

Home | Current Version | Previous Version | Graphics & Text | Print | Product List | Glossary On
Versions: 1 2 3 4 5 6 7 8 9 10 11 12 13 14 15 16 17 18 19
000
FTUS43 KABR 171621 AAA
TAFATY
TAF AMD
KATY 171621Z 1716/1812 32007KT P6SM -RA OVC080
     FM171800 36010KT P6SM OVC140=

USA.gov is the U.S. government's official web portal to all federal, state and local government web resources and services.